Time;durP1;ratioP1;P1;durP2;ratioP2;P2;SDS_P1;SDS_P2;PMS_P1;PMS_P2;Temp;Humidity;BMP_temperature;BMP_pressure;BME280_temperature;BME280_humidity;BME280_pressure;Samples;Min_cycle;Max_cycle;Signal;HPM_P1;HPM_P2
2024/02/08 00:03:11;;;;;;;;;;;;;;;6.10;100.00;94578.91;10454405;28;2174;-66
2024/02/08 00:08:16;;;;;;;;;;;;;;;6.13;100.00;94575.69;10454674;28;2213;-66
2024/02/08 00:13:20;;;;;;;;;;;;;;;6.12;100.00;94587.44;10474808;28;2002;-63
2024/02/08 00:18:25;;;;;;;;;;;;;;;6.11;100.00;94575.97;10478265;28;2143;-65
2024/02/08 00:23:32;;;;;;;;;;;;;;;6.15;100.00;94582.34;10476769;28;1951;-67
2024/02/08 00:28:39;;;;;;;;;;;;;;;6.17;100.00;94582.88;10478376;28;2540;-64
2024/02/08 00:33:46;;;;;;;;;;;;;;;6.29;100.00;94561.19;10460750;28;2079;-66
2024/02/08 00:38:52;;;;;;;;;;;;;;;6.31;100.00;94564.41;10459070;28;2223;-67
2024/02/08 00:43:55;;;;;;;;;;;;;;;6.37;100.00;94562.50;10442135;28;2107;-64
2024/02/08 00:49:03;;;;;;;;;;;;;;;6.42;100.00;94565.91;10475008;28;2253;-65
2024/02/08 00:54:08;;;;;;;;;;;;;;;6.53;100.00;94544.50;10457193;28;2260;-65
2024/02/08 00:59:15;;;;;;;;;;;;;;;6.58;100.00;94549.81;10474377;28;2040;-65
2024/02/08 01:04:22;;;;;;;;;;;;;;;6.67;100.00;94553.47;10456851;28;2152;-67
2024/02/08 01:09:27;;;;;;;;;;;;;;;6.75;100.00;94536.88;10477013;28;2079;-66
2024/02/08 01:14:33;;;;;;;;;;;;;;;6.84;100.00;94545.84;10474564;28;2021;-64
2024/02/08 01:19:37;;;;;;;;;;;;;;;6.91;100.00;94541.00;10471802;28;2047;-63
2024/02/08 01:24:40;;;;;;;;;;;;;;;6.95;100.00;94547.38;10477169;28;2107;-65
2024/02/08 01:29:50;;;;;;;;;;;;;;;7.02;100.00;94523.78;10479362;28;1941;-65
2024/02/08 01:34:54;;;;;;;;;;;;;;;7.12;100.00;94532.78;10476637;28;2050;-71
2024/02/08 01:39:58;;;;;;;;;;;;;;;7.13;100.00;94527.19;10458514;28;2111;-66
2024/02/08 01:45:01;;;;;;;;;;;;;;;7.16;100.00;94515.13;10473168;28;2126;-65
2024/02/08 01:50:07;;;;;;;;;;;;;;;7.23;100.00;94499.53;10474476;28;2126;-65
2024/02/08 01:55:16;;;;;;;;;;;;;;;7.27;100.00;94500.56;10473237;28;2219;-66
2024/02/08 02:00:22;;;;;;;;;;;;;;;7.34;100.00;94490.34;10473955;28;2345;-67
2024/02/08 02:05:28;;;;;;;;;;;;;;;7.36;100.00;94493.53;10473615;28;2436;-64
2024/02/08 02:10:34;;;;;;;;;;;;;;;7.37;100.00;94495.09;10461611;28;2075;-63
2024/02/08 02:15:38;;;;;;;;;;;;;;;7.40;100.00;94494.56;10476368;28;2060;-64
2024/02/08 02:20:44;;;;;;;;;;;;;;;7.47;100.00;94484.31;10462604;28;2077;-64
2024/02/08 02:25:48;;;;;;;;;;;;;;;7.52;100.00;94475.44;10475212;28;2161;-65
2024/02/08 02:30:52;;;;;;;;;;;;;;;7.53;100.00;94491.19;10462588;28;2160;-66
2024/02/08 02:35:56;;;;;;;;;;;;;;;7.53;100.00;94491.19;10474089;28;2071;-64
2024/02/08 02:41:06;;;;;;;;;;;;;;;7.62;100.00;94479.84;10468518;28;2075;-65
2024/02/08 02:46:11;;;;;;;;;;;;;;;7.66;100.00;94480.88;10470435;28;2235;-65
2024/02/08 02:51:19;;;;;;;;;;;;;;;7.68;100.00;94484.06;10473331;28;2083;-65
2024/02/08 02:56:23;;;;;;;;;;;;;;;7.70;100.00;94471.19;10470327;28;2166;-63
2024/02/08 03:01:32;;;;;;;;;;;;;;;7.67;100.00;94487.81;10454748;28;2059;-65
2024/02/08 03:06:45;;;;;;;;;;;;;;;7.61;100.00;94500.47;10471773;28;1927;-65
2024/02/08 03:11:57;;;;;;;;;;;;;;;7.64;100.00;94488.41;10473835;28;2197;-66
2024/02/08 03:17:15;;;;;;;;;;;;;;;7.64;100.00;94491.88;10473333;28;2025;-66
2024/02/08 03:22:34;;;;;;;;;;;;;;;7.67;100.00;94477.91;10467721;28;2119;-65
2024/02/08 03:27:37;;;;;;;;;;;;;;;7.65;100.00;94484.66;10472876;28;2090;-68
2024/02/08 03:32:43;;;;;;;;;;;;;;;7.63;100.00;94497.50;10474927;28;2136;-65
2024/02/08 03:37:48;;;;;;;;;;;;;;;7.65;100.00;94495.34;10473638;28;2216;-66
2024/02/08 03:42:55;;;;;;;;;;;;;;;7.66;100.00;94502.28;10472786;28;2631;-65
2024/02/08 03:47:59;;;;;;;;;;;;;;;7.73;100.00;94495.50;10454737;28;2084;-65
2024/02/08 03:53:12;;;;;;;;;;;;;;;7.78;100.00;94484.75;10469795;28;2111;-66
2024/02/08 03:58:23;;;;;;;;;;;;;;;7.81;100.00;94480.69;10467146;28;2099;-64
2024/02/08 04:03:43;;;;;;;;;;;;;;;7.81;100.00;94494.06;10468598;28;2044;-65
2024/02/08 04:57:08;;;;;;;;;;;;;;;7.84;100.00;94478.25;10469870;28;2103;-65
2024/02/08 05:02:12;;;;;;;;;;;;;;;7.90;100.00;94478.97;10476590;28;2263;-69
2024/02/08 05:07:26;;;;;;;;;;;;;;;7.97;100.00;94478.63;10478908;28;2059;-65
2024/02/08 05:12:37;;;;;;;;;;;;;;;8.00;100.00;94478.81;10480793;28;2222;-66
2024/02/08 05:17:42;;;;;;;;;;;;;;;8.08;100.00;94472.84;10485313;28;2130;-65
2024/02/08 05:22:45;;;;;;;;;;;;;;;8.10;100.00;94476.00;10464707;28;2078;-64
2024/02/08 05:27:54;;;;;;;;;;;;;;;8.13;100.00;94475.41;10462102;28;2409;-64
2024/02/08 05:32:59;;;;;;;;;;;;;;;8.10;100.00;94465.31;10477627;28;2104;-64
2024/02/08 05:38:04;;;;;;;;;;;;;;;7.79;100.00;94480.19;10479440;28;2107;-64
2024/02/08 05:43:10;;;;;;;;;;;;;;;7.60;100.00;94485.50;10438842;28;2067;-64
2024/02/08 05:48:17;;;;;;;;;;;;;;;7.45;100.00;94475.78;10475700;28;2067;-64
2024/02/08 05:53:29;;;;;;;;;;;;;;;7.24;100.00;94491.22;10439384;28;2181;-65
2024/02/08 05:58:51;;;;;;;;;;;;;;;7.22;100.00;94492.59;10475959;28;2059;-64
2024/02/08 06:04:09;;;;;;;;;;;;;;;7.18;100.00;94491.56;10478752;28;2027;-70
2024/02/08 06:09:33;;;;;;;;;;;;;;;7.18;100.00;94491.56;10477020;28;2360;-66
2024/02/08 06:14:39;;;;;;;;;;;;;;;7.23;100.00;94488.84;10474211;28;2200;-70
2024/02/08 06:19:50;;;;;;;;;;;;;;;7.31;100.00;94490.91;10480047;28;2047;-68
2024/02/08 06:25:08;;;;;;;;;;;;;;;7.41;100.00;94490.78;10462519;28;2229;-69
2024/02/08 06:30:18;;;;;;;;;;;;;;;7.57;100.00;94483.38;10475058;28;2127;-66
2024/02/08 06:35:28;;;;;;;;;;;;;;;7.67;100.00;94463.75;10477361;28;2122;-64
2024/02/08 07:39:39;;;;;;;;;;;;;;;8.82;100.00;94448.16;10477899;28;2633;-68
2024/02/08 07:44:54;;;;;;;;;;;;;;;9.01;100.00;94450.75;10474647;28;1913;-64
2024/02/08 07:50:04;;;;;;;;;;;;;;;9.23;100.00;94448.22;10473486;28;2048;-66
2024/02/08 08:00:41;;;;;;;;;;;;;;;9.46;100.00;94435.69;10460119;28;2047;-69
2024/02/08 08:05:56;;;;;;;;;;;;;;;9.54;100.00;94443.03;10443866;28;2126;-69
2024/02/08 08:11:05;;;;;;;;;;;;;;;9.52;100.00;94431.03;10461753;28;2176;-68
2024/02/08 08:21:29;;;;;;;;;;;;;;;9.51;100.00;94432.91;10465884;28;2381;-68
2024/02/08 08:26:39;;;;;;;;;;;;;;;9.46;100.00;94431.13;10461715;28;2138;-68
2024/02/08 08:31:52;;;;;;;;;;;;;;;9.52;100.00;94429.13;10469233;28;2186;-67
2024/02/08 08:36:58;;;;;;;;;;;;;;;9.67;100.00;94436.88;10473774;28;2114;-66
2024/02/08 08:42:06;;;;;;;;;;;;;;;10.00;100.00;94442.09;10456438;28;2257;-67
2024/02/08 08:47:11;;;;;;;;;;;;;;;10.03;100.00;94436.13;10471011;28;2135;-65
2024/02/08 08:52:23;;;;;;;;;;;;;;;9.97;100.00;94427.38;10474244;28;2055;-65
2024/02/08 08:57:28;;;;;;;;;;;;;;;9.95;100.00;94420.72;10470910;28;2035;-68
2024/02/08 09:02:40;;;;;;;;;;;;;;;10.06;100.00;94411.34;10472698;28;2256;-73
2024/02/08 09:07:45;;;;;;;;;;;;;;;10.06;100.00;94416.72;10473127;28;2138;-69
2024/02/08 09:13:00;;;;;;;;;;;;;;;10.27;100.00;94412.50;10474788;28;1976;-67
2024/02/08 09:18:35;;;;;;;;;;;;;;;10.83;100.00;94405.75;10470146;28;2501;-66
2024/02/08 09:23:48;;;;;;;;;;;;;;;10.86;100.00;94420.47;10474736;28;2287;-67
2024/02/08 09:29:00;;;;;;;;;;;;;;;11.00;100.00;94420.38;10468166;28;2024;-66
2024/02/08 09:34:14;;;;;;;;;;;;;;;11.23;100.00;94410.38;10471575;28;2111;-68
2024/02/08 09:39:48;;;;;;;;;;;;;;;11.42;100.00;94415.50;10470949;28;2226;-68
2024/02/08 09:44:49;;;;;;;;;;;;;;;11.70;100.00;94418.75;10466469;28;2166;-68
2024/02/08 09:50:00;;;;;;;;;;;;;;;11.78;100.00;94428.75;10469955;28;2230;-68
2024/02/08 09:55:18;;;;;;;;;;;;;;;11.83;100.00;94421.38;10469222;28;1992;-67
2024/02/08 10:00:36;;;;;;;;;;;;;;;11.94;100.00;94404.88;10467112;28;2072;-67
2024/02/08 10:05:57;;;;;;;;;;;;;;;12.58;100.00;94392.34;10468278;28;2055;-67
2024/02/08 10:11:23;;;;;;;;;;;;;;;12.85;100.00;94395.78;10470414;28;2136;-67
2024/02/08 10:16:47;;;;;;;;;;;;;;;12.57;100.00;94387.28;10469600;28;2337;-68
2024/02/08 10:21:56;;;;;;;;;;;;;;;12.47;100.00;94384.91;10474104;28;2152;-71
2024/02/08 10:27:07;;;;;;;;;;;;;;;12.69;100.00;94395.53;10477366;28;2078;-68
2024/02/08 10:32:14;;;;;;;;;;;;;;;13.10;100.00;94380.66;10456592;28;2037;-75
2024/02/08 10:37:46;;;;;;;;;;;;;;;13.16;100.00;94366.66;10469607;28;2182;-70
2024/02/08 10:42:58;;;;;;;;;;;;;;;12.84;100.00;94362.63;10469795;28;2130;-70
2024/02/08 10:48:04;;;;;;;;;;;;;;;13.03;100.00;94345.28;10476462;28;2063;-66
2024/02/08 10:53:16;;;;;;;;;;;;;;;13.24;100.00;94338.09;10479912;28;2163;-67
2024/02/08 10:58:27;;;;;;;;;;;;;;;13.53;100.00;94340.78;10465770;28;2138;-66
2024/02/08 11:03:34;;;;;;;;;;;;;;;13.41;100.00;94324.50;10466241;28;1985;-67
2024/02/08 11:08:50;;;;;;;;;;;;;;;13.25;100.00;94310.00;10455592;28;2051;-67
2024/02/08 11:14:08;;;;;;;;;;;;;;;13.35;100.00;94304.22;10452377;28;2057;-71
2024/02/08 11:19:16;;;;;;;;;;;;;;;13.26;100.00;94295.38;10469627;28;2031;-68
2024/02/08 11:24:38;;;;;;;;;;;;;;;13.62;100.00;94299.47;10460563;28;2497;-67
2024/02/08 11:29:45;;;;;;;;;;;;;;;13.46;100.00;94289.22;10437710;28;2146;-68
2024/02/08 11:35:00;;;;;;;;;;;;;;;13.49;100.00;94285.09;10465356;28;2126;-67
2024/02/08 11:40:11;;;;;;;;;;;;;;;13.30;100.00;94288.22;10469022;28;2122;-69
2024/02/08 11:45:15;;;;;;;;;;;;;;;13.38;100.00;94275.81;10467382;28;2301;-68
2024/02/08 11:50:19;;;;;;;;;;;;;;;13.27;100.00;94277.28;10469189;28;2082;-66
2024/02/08 11:55:28;;;;;;;;;;;;;;;13.20;100.00;94275.06;10467497;28;2126;-67
2024/02/08 12:00:45;;;;;;;;;;;;;;;13.20;100.00;94280.47;10447605;28;2073;-68
2024/02/08 12:05:57;;;;;;;;;;;;;;;13.23;100.00;94272.56;10450816;28;2156;-67
2024/02/08 12:11:11;;;;;;;;;;;;;;;13.01;100.00;94263.91;10474711;28;2158;-67
2024/02/08 12:16:19;;;;;;;;;;;;;;;13.11;100.00;94271.66;10475685;28;2063;-67
2024/02/08 12:21:25;;;;;;;;;;;;;;;13.16;100.00;94255.25;10471224;28;2132;-67
2024/02/08 12:26:31;;;;;;;;;;;;;;;13.06;100.00;94261.03;10470833;28;2079;-68
2024/02/08 12:31:38;;;;;;;;;;;;;;;13.33;100.00;94247.09;10471591;28;2245;-68
2024/02/08 12:36:45;;;;;;;;;;;;;;;13.46;100.00;94246.03;10457181;28;2079;-67
2024/02/08 12:41:51;;;;;;;;;;;;;;;13.43;100.00;94235.91;10472267;28;2063;-69
2024/02/08 12:46:53;;;;;;;;;;;;;;;13.47;100.00;94234.13;10470012;28;2047;-68
2024/02/08 12:52:03;;;;;;;;;;;;;;;13.41;100.00;94238.13;10458304;28;2006;-74
2024/02/08 12:57:12;;;;;;;;;;;;;;;13.14;100.00;94234.00;10456376;28;2055;-74
2024/02/08 13:02:17;;;;;;;;;;;;;;;13.15;100.00;94229.41;10471104;28;2339;-69
2024/02/08 13:07:25;;;;;;;;;;;;;;;13.18;100.00;94204.47;10475586;28;2094;-69
2024/02/08 13:12:29;;;;;;;;;;;;;;;13.14;100.00;94223.22;10474545;28;2110;-72
2024/02/08 13:17:37;;;;;;;;;;;;;;;13.18;100.00;94209.88;10473818;28;2087;-67
2024/02/08 13:22:44;;;;;;;;;;;;;;;12.95;100.00;94214.75;10480292;28;2138;-68
2024/02/08 13:27:51;;;;;;;;;;;;;;;12.74;100.00;94206.63;10470052;28;2017;-69
2024/02/08 13:32:55;;;;;;;;;;;;;;;12.48;100.00;94214.84;10473806;28;2109;-67
2024/02/08 13:38:00;;;;;;;;;;;;;;;12.39;100.00;94214.06;10456817;28;2129;-68
2024/02/08 13:43:06;;;;;;;;;;;;;;;12.44;100.00;94179.63;10472555;28;2152;-67
2024/02/08 13:48:12;;;;;;;;;;;;;;;12.50;100.00;94166.00;10454871;28;2138;-68
2024/02/08 13:53:28;;;;;;;;;;;;;;;12.62;100.00;94174.19;10476216;28;2170;-66
2024/02/08 13:58:35;;;;;;;;;;;;;;;12.54;100.00;94194.66;10471240;28;2115;-71
2024/02/08 14:03:45;;;;;;;;;;;;;;;12.60;100.00;94188.00;10473481;28;2127;-67
2024/02/08 14:08:53;;;;;;;;;;;;;;;12.61;100.00;94178.00;10471019;28;2166;-67
2024/02/08 14:14:03;;;;;;;;;;;;;;;12.58;100.00;94189.41;10472880;28;2126;-67
2024/02/08 14:19:11;;;;;;;;;;;;;;;12.55;100.00;94171.19;10475435;28;2067;-71
2024/02/08 14:24:18;;;;;;;;;;;;;;;12.42;100.00;94159.53;10475491;28;2266;-68
2024/02/08 14:29:28;;;;;;;;;;;;;;;12.42;100.00;94179.19;10453578;28;2346;-66
2024/02/08 14:34:36;;;;;;;;;;;;;;;12.48;100.00;94163.63;10471905;28;2108;-67
2024/02/08 14:39:43;;;;;;;;;;;;;;;12.43;100.00;94151.13;10475276;28;2181;-68
2024/02/08 14:44:53;;;;;;;;;;;;;;;12.48;100.00;94166.31;10473669;28;2134;-67
2024/02/08 14:50:43;;;;;;;;;;;;;;;12.41;100.00;94174.91;10473035;28;1988;-67
2024/02/08 14:55:35;;;;;;;;;;;;;;;12.20;100.00;94170.53;10470141;28;2004;-68
2024/02/08 15:00:57;;;;;;;;;;;;;;;11.98;100.00;94166.19;10469153;28;2031;-67
2024/02/08 15:06:05;;;;;;;;;;;;;;;11.98;100.00;94171.56;10453016;28;2122;-68
2024/02/08 15:11:25;;;;;;;;;;;;;;;11.81;100.00;94167.78;10467719;28;2015;-69
2024/02/08 15:16:31;;;;;;;;;;;;;;;11.75;100.00;94160.97;10469079;28;2371;-67
2024/02/08 15:21:52;;;;;;;;;;;;;;;11.69;100.00;94148.00;10472138;28;2067;-69
2024/02/08 15:27:18;;;;;;;;;;;;;;;11.58;100.00;94131.41;10450204;28;2214;-67
2024/02/08 15:32:40;;;;;;;;;;;;;;;11.51;100.00;94123.00;10466419;28;2158;-68
2024/02/08 15:37:49;;;;;;;;;;;;;;;11.52;100.00;94111.16;10465640;28;2035;-67
2024/02/08 15:42:55;;;;;;;;;;;;;;;11.48;100.00;94105.63;10466583;28;2362;-66
2024/02/08 15:48:03;;;;;;;;;;;;;;;11.42;100.00;94098.03;10467293;28;2063;-67
2024/02/08 15:53:16;;;;;;;;;;;;;;;11.23;100.00;94091.09;10468750;28;2216;-66
2024/02/08 15:58:44;;;;;;;;;;;;;;;11.20;100.00;94078.28;10464900;28;2201;-66
2024/02/08 16:03:56;;;;;;;;;;;;;;;11.15;100.00;94069.59;10466108;28;2065;-67
2024/02/08 16:09:01;;;;;;;;;;;;;;;11.16;100.00;94061.19;10466868;28;2067;-75
2024/02/08 16:14:15;;;;;;;;;;;;;;;11.17;100.00;94070.84;10463017;28;2099;-67
2024/02/08 16:19:42;;;;;;;;;;;;;;;11.04;100.00;94066.44;10450322;28;2125;-67
2024/02/08 16:24:49;;;;;;;;;;;;;;;10.97;100.00;94082.25;10468613;28;2087;-69
2024/02/08 16:29:59;;;;;;;;;;;;;;;11.00;100.00;94089.66;10464953;28;2067;-68
2024/02/08 16:35:28;;;;;;;;;;;;;;;10.96;100.00;94100.28;10466569;28;2278;-70
2024/02/08 16:40:32;;;;;;;;;;;;;;;10.91;100.00;94105.03;10470140;28;2387;-69
2024/02/08 16:45:44;;;;;;;;;;;;;;;10.97;100.00;94106.44;10466340;28;2119;-68
2024/02/08 16:50:49;;;;;;;;;;;;;;;10.84;100.00;94108.19;10467614;28;2148;-68
2024/02/08 16:55:58;;;;;;;;;;;;;;;10.78;100.00;94104.84;10453047;28;2121;-67
2024/02/08 17:06:33;;;;;;;;;;;;;;;10.79;100.00;94101.06;10450614;28;2127;-67
2024/02/08 17:11:40;;;;;;;;;;;;;;;10.70;100.00;94108.34;10469971;28;2270;-69
2024/02/08 17:16:59;;;;;;;;;;;;;;;10.61;100.00;94104.81;10471338;28;2111;-69
2024/02/08 17:22:28;;;;;;;;;;;;;;;10.62;100.00;94098.34;10473135;28;2113;-68
2024/02/08 17:27:55;;;;;;;;;;;;;;;10.59;100.00;94084.75;10469220;28;2399;-70
2024/02/08 17:33:02;;;;;;;;;;;;;;;10.53;100.00;94092.19;10477135;28;2154;-67
2024/02/08 17:38:06;;;;;;;;;;;;;;;10.53;100.00;94090.28;10472996;28;2229;-67
2024/02/08 17:43:17;;;;;;;;;;;;;;;10.57;100.00;94074.34;10476498;28;2142;-67
2024/02/08 17:48:23;;;;;;;;;;;;;;;10.55;100.00;94073.84;10478646;28;2190;-64
2024/02/08 17:53:31;;;;;;;;;;;;;;;10.53;100.00;94086.81;10477192;28;2018;-65
2024/02/08 17:58:36;;;;;;;;;;;;;;;10.51;100.00;94078.28;10471859;28;2102;-65
2024/02/08 18:03:42;;;;;;;;;;;;;;;10.45;100.00;94069.56;10475745;28;2063;-65
2024/02/08 18:08:50;;;;;;;;;;;;;;;10.48;100.00;94065.47;10474291;28;2154;-66
2024/02/08 18:14:00;;;;;;;;;;;;;;;10.45;100.00;94050.78;10458386;28;2026;-68
2024/02/08 18:19:05;;;;;;;;;;;;;;;10.51;100.00;94054.09;10475901;28;2110;-66
2024/02/08 18:24:10;;;;;;;;;;;;;;;10.53;100.00;94038.44;10456465;28;2089;-67
2024/02/08 18:29:20;;;;;;;;;;;;;;;10.48;100.00;94042.06;10467986;28;2372;-67
2024/02/08 18:39:45;;;;;;;;;;;;;;;10.44;100.00;94027.69;10454766;28;2092;-68
2024/02/08 18:44:49;;;;;;;;;;;;;;;10.43;100.00;94028.00;10441806;28;2086;-66
2024/02/08 18:50:06;;;;;;;;;;;;;;;10.43;100.00;94028.00;10442774;28;2353;-66
2024/02/08 18:55:16;;;;;;;;;;;;;;;10.38;100.00;94026.28;10473644;28;2419;-71
2024/02/08 19:00:24;;;;;;;;;;;;;;;10.37;100.00;94016.63;10457186;28;2138;-65
2024/02/08 19:05:33;;;;;;;;;;;;;;;10.32;100.00;94011.41;10473584;28;2106;-66
2024/02/08 19:10:43;;;;;;;;;;;;;;;10.31;100.00;94009.03;10475231;28;2109;-66
2024/02/08 19:15:54;;;;;;;;;;;;;;;10.29;100.00;94001.28;10470865;28;2094;-69
2024/02/08 19:21:00;;;;;;;;;;;;;;;10.28;100.00;93999.72;10449938;28;2119;-66
2024/02/08 19:26:08;;;;;;;;;;;;;;;10.22;100.00;93996.34;10455690;28;2087;-66
2024/02/08 19:31:16;;;;;;;;;;;;;;;10.22;100.00;93990.97;10480988;28;2060;-67
2024/02/08 19:36:24;;;;;;;;;;;;;;;10.14;100.00;93978.34;10500611;28;1902;-67
2024/02/08 19:41:30;;;;;;;;;;;;;;;10.12;100.00;93969.03;10495469;28;1558;-67
2024/02/08 19:46:40;;;;;;;;;;;;;;;10.10;100.00;93960.50;10500356;28;2834;-69
2024/02/08 19:52:06;;;;;;;;;;;;;;;10.06;100.00;93951.50;10495327;28;1937;-66
2024/02/08 19:57:12;;;;;;;;;;;;;;;10.06;100.00;93954.97;10492301;28;1719;-67
2024/02/08 20:02:34;;;;;;;;;;;;;;;9.96;100.00;93944.53;10505317;28;2127;-67
2024/02/08 20:08:09;;;;;;;;;;;;;;;10.04;100.00;93933.00;10500732;28;1601;-66
2024/02/08 20:13:17;;;;;;;;;;;;;;;10.07;100.00;93929.69;10482098;28;2005;-74
2024/02/08 20:18:24;;;;;;;;;;;;;;;10.03;100.00;93928.75;10488712;28;1745;-72
2024/02/08 20:23:40;;;;;;;;;;;;;;;10.04;100.00;93919.56;10499246;28;1838;-75
2024/02/08 20:28:45;;;;;;;;;;;;;;;10.02;100.00;93911.06;10477555;28;2544;-74
2024/02/08 20:33:57;;;;;;;;;;;;;;;10.13;100.00;93909.66;10483929;28;1918;-68
2024/02/08 20:39:05;;;;;;;;;;;;;;;10.12;100.00;93910.75;10502088;28;1701;-67
2024/02/08 20:44:15;;;;;;;;;;;;;;;10.16;100.00;93917.06;10497499;28;2015;-69
2024/02/08 20:49:21;;;;;;;;;;;;;;;10.19;100.00;93911.06;10502158;28;1596;-67
2024/02/08 20:54:36;;;;;;;;;;;;;;;10.17;100.00;93899.84;10502174;28;1992;-68
2024/02/08 20:59:48;;;;;;;;;;;;;;;10.16;100.00;93898.25;10493148;28;1861;-67
2024/02/08 21:04:57;;;;;;;;;;;;;;;10.12;100.00;93889.28;10496978;28;1731;-66
2024/02/08 21:10:04;;;;;;;;;;;;;;;10.09;100.00;93883.75;10498496;28;2294;-67
2024/02/08 21:15:22;;;;;;;;;;;;;;;10.07;100.00;93889.44;10486809;28;2028;-68
2024/02/08 21:20:35;;;;;;;;;;;;;;;10.02;100.00;93887.69;10476086;28;2166;-69
2024/02/08 21:25:41;;;;;;;;;;;;;;;10.12;100.00;93894.66;10477906;28;2127;-65
2024/02/08 21:36:05;;;;;;;;;;;;;;;10.12;100.00;93918.81;10473955;28;2213;-66
2024/02/08 21:41:08;;;;;;;;;;;;;;;10.13;100.00;93917.69;10473021;28;2173;-66
2024/02/08 21:46:13;;;;;;;;;;;;;;;10.10;100.00;93937.13;10473059;28;2312;-68
2024/02/08 21:51:20;;;;;;;;;;;;;;;10.10;100.00;93912.16;10459686;28;2524;-70
2024/02/08 21:56:37;;;;;;;;;;;;;;;10.12;100.00;93905.38;10460393;28;2052;-72
2024/02/08 22:01:42;;;;;;;;;;;;;;;10.06;100.00;93903.97;10472705;28;2252;-77
2024/02/08 22:06:52;;;;;;;;;;;;;;;10.06;100.00;93914.69;10478771;28;2099;-73
2024/02/08 22:12:04;;;;;;;;;;;;;;;10.00;100.00;93908.69;10473866;28;2205;-67
2024/02/08 22:17:11;;;;;;;;;;;;;;;9.94;100.00;93909.16;10474408;28;2158;-69
2024/02/08 22:22:16;;;;;;;;;;;;;;;9.98;100.00;93891.31;10480687;28;2036;-67
2024/02/08 22:27:22;;;;;;;;;;;;;;;9.91;100.00;93912.47;10471092;28;2224;-67
2024/02/08 22:32:27;;;;;;;;;;;;;;;9.95;100.00;93900.78;10471629;28;2155;-67
2024/02/08 22:37:31;;;;;;;;;;;;;;;9.95;100.00;93905.38;10466508;28;2090;-70
2024/02/08 22:42:36;;;;;;;;;;;;;;;9.96;100.00;93917.69;10472013;28;2165;-67
2024/02/08 22:47:45;;;;;;;;;;;;;;;9.97;100.00;93914.69;10474298;28;2573;-71
2024/02/08 22:52:52;;;;;;;;;;;;;;;9.97;100.00;93913.91;10472879;28;2074;-67
2024/02/08 22:58:00;;;;;;;;;;;;;;;9.97;100.00;93920.03;10457846;28;2255;-66
2024/02/08 23:03:08;;;;;;;;;;;;;;;9.95;100.00;93916.09;10473199;28;2067;-66
2024/02/08 23:08:14;;;;;;;;;;;;;;;10.02;100.00;93900.31;10455375;28;2073;-66
2024/02/08 23:13:20;;;;;;;;;;;;;;;10.06;100.00;93895.91;10471909;28;2050;-67
2024/02/08 23:18:29;;;;;;;;;;;;;;;10.06;100.00;93895.91;10471521;28;1974;-67
2024/02/08 23:23:38;;;;;;;;;;;;;;;10.00;100.00;93889.13;10462456;28;2090;-67
2024/02/08 23:28:44;;;;;;;;;;;;;;;9.97;100.00;93892.41;10469418;28;2432;-66
2024/02/08 23:33:51;;;;;;;;;;;;;;;9.91;100.00;93889.09;10453132;28;2089;-67
2024/02/08 23:38:59;;;;;;;;;;;;;;;9.89;100.00;93904.72;10472535;28;2367;-67
2024/02/08 23:44:03;;;;;;;;;;;;;;;9.89;100.00;93890.53;10471127;28;2064;-66
2024/02/08 23:49:16;;;;;;;;;;;;;;;9.78;100.00;93889.25;10461837;28;2066;-67
2024/02/08 23:54:38;;;;;;;;;;;;;;;9.78;100.00;93883.88;10471934;28;2134;-66
2024/02/08 23:59:41;;;;;;;;;;;;;;;9.70;100.00;93886.25;10468191;28;2350;-65
